sensor_id;sensor_type;location;lat;lon;timestamp;pressure;altitude;pressure_sealevel;temperature;humidity
67397;BME280;57728;50.448;18.824;2023-02-18T00:01:14;97491.41;;;10.59;75.11
67397;BME280;57728;50.448;18.824;2023-02-18T00:03:17;97310.13;;;9.37;74.90
67397;BME280;57728;50.448;18.824;2023-02-18T00:05:33;97446.84;;;10.19;75.50
67397;BME280;57728;50.448;18.824;2023-02-18T00:07:37;97369.97;;;9.54;75.99
67397;BME280;57728;50.448;18.824;2023-02-18T00:09:40;97436.13;;;9.72;76.39
67397;BME280;57728;50.448;18.824;2023-02-18T00:11:41;97385.16;;;9.26;76.72
67397;BME280;57728;50.448;18.824;2023-02-18T00:13:49;97449.38;;;9.56;77.38
67397;BME280;57728;50.448;18.824;2023-02-18T00:15:52;97567.75;;;10.00;78.21
67397;BME280;57728;50.448;18.824;2023-02-18T00:17:53;97487.19;;;9.46;78.30
67397;BME280;57728;50.448;18.824;2023-02-18T00:19:55;97407.59;;;8.86;77.93
67397;BME280;57728;50.448;18.824;2023-02-18T00:21:57;97507.28;;;9.45;77.02
67397;BME280;57728;50.448;18.824;2023-02-18T00:23:59;97562.94;;;9.66;75.84
67397;BME280;57728;50.448;18.824;2023-02-18T00:26:12;97522.53;;;9.46;75.40
67397;BME280;57728;50.448;18.824;2023-02-18T00:28:15;97491.19;;;9.08;74.98
67397;BME280;57728;50.448;18.824;2023-02-18T00:30:16;97364.09;;;8.39;75.20
67397;BME280;57728;50.448;18.824;2023-02-18T00:32:19;97507.72;;;9.18;75.15
67397;BME280;57728;50.448;18.824;2023-02-18T00:34:21;97494.16;;;9.06;74.90
67397;BME280;57728;50.448;18.824;2023-02-18T00:36:23;97560.56;;;9.46;74.71
67397;BME280;57728;50.448;18.824;2023-02-18T00:38:26;97559.94;;;9.32;74.82
67397;BME280;57728;50.448;18.824;2023-02-18T00:40:28;97432.00;;;8.63;74.65
67397;BME280;57728;50.448;18.824;2023-02-18T00:42:30;97462.28;;;8.59;74.39
67397;BME280;57728;50.448;18.824;2023-02-18T00:44:32;97586.41;;;9.37;74.30
67397;BME280;57728;50.448;18.824;2023-02-18T00:46:35;97566.81;;;9.35;73.69
67397;BME280;57728;50.448;18.824;2023-02-18T00:48:37;97584.75;;;9.36;73.26
67397;BME280;57728;50.448;18.824;2023-02-18T00:50:40;97588.53;;;9.35;73.08
67397;BME280;57728;50.448;18.824;2023-02-18T00:52:41;97390.38;;;8.26;73.03
67397;BME280;57728;50.448;18.824;2023-02-18T00:54:42;97353.41;;;8.02;73.13
67397;BME280;57728;50.448;18.824;2023-02-18T00:56:45;97444.84;;;8.55;73.05
67397;BME280;57728;50.448;18.824;2023-02-18T00:58:47;97383.63;;;8.17;73.01
67397;BME280;57728;50.448;18.824;2023-02-18T01:00:50;97536.75;;;9.06;73.22
67397;BME280;57728;50.448;18.824;2023-02-18T01:02:52;97553.03;;;9.06;73.30
67397;BME280;57728;50.448;18.824;2023-02-18T01:04:56;97528.72;;;8.99;73.15
67397;BME280;57728;50.448;18.824;2023-02-18T01:06:57;97388.69;;;8.14;72.88
67397;BME280;57728;50.448;18.824;2023-02-18T01:09:00;97434.44;;;8.22;72.67
67397;BME280;57728;50.448;18.824;2023-02-18T01:11:04;97386.78;;;8.14;72.51
67397;BME280;57728;50.448;18.824;2023-02-18T01:13:07;97455.81;;;8.49;72.40
67397;BME280;57728;50.448;18.824;2023-02-18T01:15:24;97574.91;;;9.23;72.02
67397;BME280;57728;50.448;18.824;2023-02-18T01:17:26;97568.06;;;9.08;70.96
67397;BME280;57728;50.448;18.824;2023-02-18T01:19:27;97568.31;;;9.19;70.46
67397;BME280;57728;50.448;18.824;2023-02-18T01:21:30;97576.09;;;9.15;68.87
67397;BME280;57728;50.448;18.824;2023-02-18T01:23:33;97570.66;;;9.15;68.31
67397;BME280;57728;50.448;18.824;2023-02-18T01:25:36;97366.34;;;8.00;67.92
67397;BME280;57728;50.448;18.824;2023-02-18T01:27:38;97585.06;;;9.16;67.50
67397;BME280;57728;50.448;18.824;2023-02-18T01:29:41;97544.50;;;8.90;66.92
67397;BME280;57728;50.448;18.824;2023-02-18T01:31:42;97506.72;;;8.77;67.03
67397;BME280;57728;50.448;18.824;2023-02-18T01:33:44;97416.06;;;7.94;66.40
67397;BME280;57728;50.448;18.824;2023-02-18T01:35:46;97450.94;;;8.20;66.47
67397;BME280;57728;50.448;18.824;2023-02-18T01:37:49;97543.88;;;8.76;66.89
67397;BME280;57728;50.448;18.824;2023-02-18T01:39:51;97490.69;;;8.26;66.85
67397;BME280;57728;50.448;18.824;2023-02-18T01:41:53;97588.09;;;8.95;66.77
67397;BME280;57728;50.448;18.824;2023-02-18T01:44:14;97591.28;;;8.92;66.25
67397;BME280;57728;50.448;18.824;2023-02-18T01:46:20;97574.03;;;8.87;64.04
67397;BME280;57728;50.448;18.824;2023-02-18T01:48:29;97552.44;;;8.62;62.01
67397;BME280;57728;50.448;18.824;2023-02-18T01:50:55;97504.25;;;8.45;61.08
67397;BME280;57728;50.448;18.824;2023-02-18T01:53:03;97365.19;;;7.47;61.17
67397;BME280;57728;50.448;18.824;2023-02-18T01:55:06;97530.47;;;8.51;61.08
67397;BME280;57728;50.448;18.824;2023-02-18T01:57:11;97583.91;;;8.81;60.47
67397;BME280;57728;50.448;18.824;2023-02-18T01:59:31;97488.91;;;8.20;59.63
67397;BME280;57728;50.448;18.824;2023-02-18T02:01:45;97538.63;;;8.51;59.45
67397;BME280;57728;50.448;18.824;2023-02-18T02:03:47;97609.13;;;8.70;59.33
67397;BME280;57728;50.448;18.824;2023-02-18T02:05:49;97427.41;;;7.72;58.81
67397;BME280;57728;50.448;18.824;2023-02-18T02:07:53;97439.56;;;7.81;57.02
67397;BME280;57728;50.448;18.824;2023-02-18T02:09:57;97566.75;;;8.69;56.71
67397;BME280;57728;50.448;18.824;2023-02-18T02:36:34;97556.53;;;8.52;53.79
67397;BME280;57728;50.448;18.824;2023-02-18T02:38:40;97597.56;;;8.74;53.91
67397;BME280;57728;50.448;18.824;2023-02-18T02:41:28;97538.22;;;8.29;53.98
67397;BME280;57728;50.448;18.824;2023-02-18T02:51:05;97618.53;;;8.67;54.59
67397;BME280;57728;50.448;18.824;2023-02-18T02:53:19;97599.34;;;8.50;54.86
67397;BME280;57728;50.448;18.824;2023-02-18T02:55:26;97623.34;;;8.65;54.97
67397;BME280;57728;50.448;18.824;2023-02-18T03:00:04;97498.13;;;7.82;55.19
67397;BME280;57728;50.448;18.824;2023-02-18T03:02:24;97634.44;;;8.64;55.46
67397;BME280;57728;50.448;18.824;2023-02-18T03:05:48;97637.63;;;8.60;55.80
67397;BME280;57728;50.448;18.824;2023-02-18T03:08:18;97635.81;;;8.54;56.15
67397;BME280;57728;50.448;18.824;2023-02-18T03:11:02;97624.00;;;8.49;56.46
67397;BME280;57728;50.448;18.824;2023-02-18T03:13:17;97635.13;;;8.40;54.12
67397;BME280;57728;50.448;18.824;2023-02-18T03:18:16;97566.41;;;8.09;52.30
67397;BME280;57728;50.448;18.824;2023-02-18T03:20:33;97410.69;;;7.19;51.39
67397;BME280;57728;50.448;18.824;2023-02-18T03:22:45;97481.41;;;7.30;51.32
67397;BME280;57728;50.448;18.824;2023-02-18T03:24:54;97498.22;;;7.57;51.39
67397;BME280;57728;50.448;18.824;2023-02-18T03:27:06;97555.00;;;7.89;51.57
67397;BME280;57728;50.448;18.824;2023-02-18T03:29:17;97675.09;;;8.52;51.75
67397;BME280;57728;50.448;18.824;2023-02-18T03:31:27;97573.78;;;7.84;51.64
67397;BME280;57728;50.448;18.824;2023-02-18T03:33:38;97500.38;;;7.48;51.50
67397;BME280;57728;50.448;18.824;2023-02-18T03:35:47;97626.47;;;8.13;51.60
67397;BME280;57728;50.448;18.824;2023-02-18T03:37:58;97656.81;;;8.40;51.75
67397;BME280;57728;50.448;18.824;2023-02-18T03:40:06;97597.22;;;7.97;51.84
67397;BME280;57728;50.448;18.824;2023-02-18T03:42:11;97570.22;;;7.65;52.18
67397;BME280;57728;50.448;18.824;2023-02-18T03:44:12;97589.97;;;7.72;52.07
67397;BME280;57728;50.448;18.824;2023-02-18T03:46:16;97641.81;;;8.01;52.35
67397;BME280;57728;50.448;18.824;2023-02-18T03:48:19;97653.97;;;7.91;52.46
67397;BME280;57728;50.448;18.824;2023-02-18T03:50:21;97678.63;;;8.08;52.62
67397;BME280;57728;50.448;18.824;2023-02-18T03:52:22;97664.53;;;8.00;52.70
67397;BME280;57728;50.448;18.824;2023-02-18T03:54:26;97666.72;;;7.91;52.82
67397;BME280;57728;50.448;18.824;2023-02-18T03:56:32;97663.69;;;7.81;53.08
67397;BME280;57728;50.448;18.824;2023-02-18T03:58:35;97635.97;;;7.53;53.00
67397;BME280;57728;50.448;18.824;2023-02-18T04:00:42;97534.00;;;6.90;53.09
67397;BME280;57728;50.448;18.824;2023-02-18T04:03:16;97655.59;;;7.74;53.13
67397;BME280;57728;50.448;18.824;2023-02-18T04:05:20;97577.13;;;7.17;52.86
67397;BME280;57728;50.448;18.824;2023-02-18T04:08:15;97618.00;;;7.59;53.07
67397;BME280;57728;50.448;18.824;2023-02-18T04:10:25;97645.47;;;7.63;52.90
67397;BME280;57728;50.448;18.824;2023-02-18T04:12:34;97683.50;;;8.00;52.79
67397;BME280;57728;50.448;18.824;2023-02-18T04:14:38;97484.06;;;6.61;52.67
67397;BME280;57728;50.448;18.824;2023-02-18T04:16:43;97561.69;;;7.17;52.77
67397;BME280;57728;50.448;18.824;2023-02-18T04:18:53;97698.09;;;7.99;52.71
67397;BME280;57728;50.448;18.824;2023-02-18T04:21:14;97702.13;;;7.96;52.34
67397;BME280;57728;50.448;18.824;2023-02-18T04:23:20;97669.31;;;7.79;52.49
67397;BME280;57728;50.448;18.824;2023-02-18T04:25:33;97697.50;;;7.97;52.47
67397;BME280;57728;50.448;18.824;2023-02-18T04:27:35;97577.59;;;7.07;52.45
67397;BME280;57728;50.448;18.824;2023-02-18T04:29:55;97567.56;;;6.82;52.57
67397;BME280;57728;50.448;18.824;2023-02-18T04:31:57;97713.47;;;7.86;51.85
67397;BME280;57728;50.448;18.824;2023-02-18T04:34:02;97654.16;;;7.46;51.91
67397;BME280;57728;50.448;18.824;2023-02-18T04:36:08;97502.59;;;6.57;50.77
67397;BME280;57728;50.448;18.824;2023-02-18T04:38:10;97674.41;;;7.69;50.67
67397;BME280;57728;50.448;18.824;2023-02-18T04:40:21;97721.16;;;7.89;49.83
67397;BME280;57728;50.448;18.824;2023-02-18T04:42:31;97507.78;;;6.59;49.17
67397;BME280;57728;50.448;18.824;2023-02-18T04:44:36;97632.09;;;7.43;49.37
67397;BME280;57728;50.448;18.824;2023-02-18T04:46:39;97721.16;;;7.89;49.44
67397;BME280;57728;50.448;18.824;2023-02-18T04:48:51;97526.78;;;6.77;48.95
67397;BME280;57728;50.448;18.824;2023-02-18T04:50:58;97585.28;;;7.10;49.00
67397;BME280;57728;50.448;18.824;2023-02-18T04:53:06;97695.25;;;7.94;48.31
67397;BME280;57728;50.448;18.824;2023-02-18T04:55:20;97698.41;;;7.90;47.60
67397;BME280;57728;50.448;18.824;2023-02-18T04:57:24;97668.97;;;7.69;46.89
67397;BME280;57728;50.448;18.824;2023-02-18T04:59:31;97702.63;;;7.86;47.12
67397;BME280;57728;50.448;18.824;2023-02-18T05:01:39;97497.06;;;6.45;47.11
67397;BME280;57728;50.448;18.824;2023-02-18T05:03:44;97682.47;;;7.50;46.93
67397;BME280;57728;50.448;18.824;2023-02-18T05:05:48;97724.16;;;7.74;46.91
67397;BME280;57728;50.448;18.824;2023-02-18T05:07:55;97564.66;;;6.77;47.37
67397;BME280;57728;50.448;18.824;2023-02-18T05:10:09;97565.47;;;6.84;47.29
67397;BME280;57728;50.448;18.824;2023-02-18T05:13:02;97713.09;;;7.76;47.01
67397;BME280;57728;50.448;18.824;2023-02-18T05:15:04;97541.63;;;6.68;46.96
67397;BME280;57728;50.448;18.824;2023-02-18T05:17:13;97715.47;;;7.66;46.83
67397;BME280;57728;50.448;18.824;2023-02-18T05:19:17;97698.25;;;7.53;46.39
67397;BME280;57728;50.448;18.824;2023-02-18T05:21:30;97721.44;;;7.74;46.63
67397;BME280;57728;50.448;18.824;2023-02-18T05:23:32;97565.06;;;6.81;46.70
67397;BME280;57728;50.448;18.824;2023-02-18T05:25:36;97622.28;;;7.16;46.14
67397;BME280;57728;50.448;18.824;2023-02-18T05:28:00;97582.66;;;6.97;46.12
67397;BME280;57728;50.448;18.824;2023-02-18T05:30:05;97710.38;;;7.76;46.17
67397;BME280;57728;50.448;18.824;2023-02-18T05:32:09;97676.19;;;7.56;45.56
67397;BME280;57728;50.448;18.824;2023-02-18T05:34:12;97693.25;;;7.57;45.52
67397;BME280;57728;50.448;18.824;2023-02-18T05:36:16;97562.16;;;6.82;45.57
67397;BME280;57728;50.448;18.824;2023-02-18T05:38:19;97645.47;;;7.37;45.57
67397;BME280;57728;50.448;18.824;2023-02-18T05:40:20;97674.50;;;7.55;45.22
67397;BME280;57728;50.448;18.824;2023-02-18T05:42:24;97585.78;;;6.94;45.73
67397;BME280;57728;50.448;18.824;2023-02-18T05:44:27;97557.25;;;6.66;45.60
67397;BME280;57728;50.448;18.824;2023-02-18T05:46:53;97693.47;;;7.55;45.74
67397;BME280;57728;50.448;18.824;2023-02-18T05:48:58;97670.03;;;7.43;45.67
67397;BME280;57728;50.448;18.824;2023-02-18T05:51:00;97557.47;;;6.64;45.69
67397;BME280;57728;50.448;18.824;2023-02-18T05:53:06;97721.69;;;7.73;45.29
67397;BME280;57728;50.448;18.824;2023-02-18T05:55:07;97580.03;;;6.83;44.69
67397;BME280;57728;50.448;18.824;2023-02-18T05:57:32;97696.69;;;7.71;44.70
67397;BME280;57728;50.448;18.824;2023-02-18T05:59:37;97725.78;;;7.82;44.58
67397;BME280;57728;50.448;18.824;2023-02-18T06:01:44;97706.53;;;7.65;44.66
67397;BME280;57728;50.448;18.824;2023-02-18T06:03:54;97659.75;;;7.51;44.43
67397;BME280;57728;50.448;18.824;2023-02-18T06:05:56;97578.72;;;6.93;44.06
67397;BME280;57728;50.448;18.824;2023-02-18T06:08:05;97539.53;;;6.70;43.62
67397;BME280;57728;50.448;18.824;2023-02-18T06:10:21;97605.03;;;7.11;43.78
67397;BME280;57728;50.448;18.824;2023-02-18T06:12:23;97679.47;;;7.58;43.63
67397;BME280;57728;50.448;18.824;2023-02-18T06:14:24;97670.34;;;7.53;43.74
67397;BME280;57728;50.448;18.824;2023-02-18T06:16:27;97651.00;;;7.49;43.25
67397;BME280;57728;50.448;18.824;2023-02-18T06:18:33;97543.94;;;6.64;43.24
67397;BME280;57728;50.448;18.824;2023-02-18T06:20:35;97602.78;;;7.08;42.71
67397;BME280;57728;50.448;18.824;2023-02-18T06:22:44;97672.41;;;7.57;43.19
67397;BME280;57728;50.448;18.824;2023-02-18T06:24:45;97636.34;;;7.32;43.34
67397;BME280;57728;50.448;18.824;2023-02-18T06:26:47;97640.00;;;7.44;43.04
67397;BME280;57728;50.448;18.824;2023-02-18T06:28:49;97623.84;;;7.31;42.75
67397;BME280;57728;50.448;18.824;2023-02-18T06:30:51;97712.84;;;7.84;42.67
67397;BME280;57728;50.448;18.824;2023-02-18T06:32:52;97736.88;;;8.06;42.97
67397;BME280;57728;50.448;18.824;2023-02-18T06:34:54;97662.72;;;7.68;43.16
67397;BME280;57728;50.448;18.824;2023-02-18T06:37:01;97568.25;;;7.03;42.57
67397;BME280;57728;50.448;18.824;2023-02-18T06:39:13;97738.50;;;8.07;42.54
67397;BME280;57728;50.448;18.824;2023-02-18T06:41:32;97708.81;;;7.94;42.65
67397;BME280;57728;50.448;18.824;2023-02-18T06:43:36;97700.56;;;7.82;42.63
67397;BME280;57728;50.448;18.824;2023-02-18T06:45:43;97716.09;;;7.93;42.69
67397;BME280;57728;50.448;18.824;2023-02-18T06:47:50;97719.97;;;8.04;42.51
67397;BME280;57728;50.448;18.824;2023-02-18T06:50:00;97751.88;;;8.27;42.62
67397;BME280;57728;50.448;18.824;2023-02-18T06:52:23;97707.03;;;8.06;42.17
67397;BME280;57728;50.448;18.824;2023-02-18T06:54:39;97699.31;;;8.03;42.26
67397;BME280;57728;50.448;18.824;2023-02-18T06:56:46;97760.34;;;8.37;42.16
67397;BME280;57728;50.448;18.824;2023-02-18T06:58:51;97758.00;;;8.41;41.79
67397;BME280;57728;50.448;18.824;2023-02-18T07:00:54;97738.25;;;8.34;42.10
67397;BME280;57728;50.448;18.824;2023-02-18T07:02:56;97758.78;;;8.48;41.89
67397;BME280;57728;50.448;18.824;2023-02-18T07:05:02;97759.41;;;8.50;41.44
67397;BME280;57728;50.448;18.824;2023-02-18T07:07:15;97717.00;;;8.31;41.18
67397;BME280;57728;50.448;18.824;2023-02-18T07:09:25;97661.06;;;7.92;41.70
67397;BME280;57728;50.448;18.824;2023-02-18T07:11:33;97758.50;;;8.56;41.32
67397;BME280;57728;50.448;18.824;2023-02-18T07:13:46;97695.22;;;8.19;41.71
67397;BME280;57728;50.448;18.824;2023-02-18T07:16:00;97509.94;;;7.07;41.13
67397;BME280;57728;50.448;18.824;2023-02-18T07:18:03;97636.19;;;7.77;41.05
67397;BME280;57728;50.448;18.824;2023-02-18T07:20:07;97780.09;;;8.51;40.97
67397;BME280;57728;50.448;18.824;2023-02-18T07:22:09;97728.09;;;8.29;41.14
67397;BME280;57728;50.448;18.824;2023-02-18T07:24:12;97702.75;;;8.17;41.23
67397;BME280;57728;50.448;18.824;2023-02-18T07:26:14;97609.19;;;7.45;41.58
67397;BME280;57728;50.448;18.824;2023-02-18T07:28:24;97772.66;;;8.40;40.82
67397;BME280;57728;50.448;18.824;2023-02-18T07:30:26;97645.47;;;7.63;40.59
67397;BME280;57728;50.448;18.824;2023-02-18T07:32:30;97715.75;;;8.08;40.71
67397;BME280;57728;50.448;18.824;2023-02-18T07:34:32;97762.38;;;8.42;40.96
67397;BME280;57728;50.448;18.824;2023-02-18T07:36:33;97571.41;;;7.25;41.22
67397;BME280;57728;50.448;18.824;2023-02-18T07:38:35;97728.53;;;8.26;41.18
67397;BME280;57728;50.448;18.824;2023-02-18T07:40:37;97691.41;;;8.01;40.98
67397;BME280;57728;50.448;18.824;2023-02-18T07:42:38;97733.97;;;8.26;40.69
67397;BME280;57728;50.448;18.824;2023-02-18T07:44:41;97650.63;;;7.71;40.59
67397;BME280;57728;50.448;18.824;2023-02-18T07:46:43;97599.16;;;7.46;40.96
67397;BME280;57728;50.448;18.824;2023-02-18T07:48:44;97747.59;;;8.38;40.96
67397;BME280;57728;50.448;18.824;2023-02-18T07:50:46;97654.34;;;7.77;41.20
67397;BME280;57728;50.448;18.824;2023-02-18T07:52:48;97766.38;;;8.39;41.18
67397;BME280;57728;50.448;18.824;2023-02-18T07:54:49;97749.09;;;8.34;41.23
67397;BME280;57728;50.448;18.824;2023-02-18T07:56:52;97758.38;;;8.51;41.08
67397;BME280;57728;50.448;18.824;2023-02-18T07:58:56;97751.97;;;8.46;41.30
67397;BME280;57728;50.448;18.824;2023-02-18T08:00:58;97662.59;;;7.82;41.43
67397;BME280;57728;50.448;18.824;2023-02-18T08:03:00;97655.00;;;7.72;41.31
67397;BME280;57728;50.448;18.824;2023-02-18T08:05:02;97652.13;;;7.67;41.26
67397;BME280;57728;50.448;18.824;2023-02-18T08:07:03;97664.22;;;7.89;41.70
67397;BME280;57728;50.448;18.824;2023-02-18T08:09:06;97765.59;;;8.57;41.54
67397;BME280;57728;50.448;18.824;2023-02-18T08:11:08;97771.19;;;8.63;41.14
67397;BME280;57728;50.448;18.824;2023-02-18T08:13:10;97653.44;;;7.83;41.41
67397;BME280;57728;50.448;18.824;2023-02-18T08:15:13;97760.00;;;8.52;41.68
67397;BME280;57728;50.448;18.824;2023-02-18T08:17:14;97784.78;;;8.63;41.55
67397;BME280;57728;50.448;18.824;2023-02-18T08:19:17;97776.22;;;8.59;41.46
67397;BME280;57728;50.448;18.824;2023-02-18T08:21:23;97758.22;;;8.46;41.85
67397;BME280;57728;50.448;18.824;2023-02-18T08:23:26;97780.63;;;8.60;42.03
67397;BME280;57728;50.448;18.824;2023-02-18T08:25:27;97780.97;;;8.64;42.14
67397;BME280;57728;50.448;18.824;2023-02-18T08:27:34;97678.94;;;8.00;41.91
67397;BME280;57728;50.448;18.824;2023-02-18T08:29:36;97610.16;;;7.51;41.95
67397;BME280;57728;50.448;18.824;2023-02-18T08:31:37;97491.97;;;6.87;41.58
67397;BME280;57728;50.448;18.824;2023-02-18T08:33:40;97668.75;;;7.96;41.90
67397;BME280;57728;50.448;18.824;2023-02-18T08:35:43;97622.50;;;7.72;41.99
67397;BME280;57728;50.448;18.824;2023-02-18T08:37:45;97696.97;;;8.13;41.87
67397;BME280;57728;50.448;18.824;2023-02-18T08:39:48;97780.69;;;8.72;41.85
67397;BME280;57728;50.448;18.824;2023-02-18T08:41:50;97747.28;;;8.53;41.84
67397;BME280;57728;50.448;18.824;2023-02-18T08:43:51;97773.31;;;8.79;41.89
67397;BME280;57728;50.448;18.824;2023-02-18T08:45:57;97632.75;;;7.88;41.98
67397;BME280;57728;50.448;18.824;2023-02-18T08:47:59;97682.66;;;8.24;41.81
67397;BME280;57728;50.448;18.824;2023-02-18T08:50:00;97624.66;;;7.82;42.14
67397;BME280;57728;50.448;18.824;2023-02-18T08:52:03;97816.50;;;8.81;41.75
67397;BME280;57728;50.448;18.824;2023-02-18T08:54:04;97658.75;;;7.96;42.15
67397;BME280;57728;50.448;18.824;2023-02-18T08:56:07;97646.78;;;8.04;42.47
67397;BME280;57728;50.448;18.824;2023-02-18T08:58:11;97816.84;;;8.91;42.54
67397;BME280;57728;50.448;18.824;2023-02-18T09:00:15;97746.25;;;8.72;42.40
67397;BME280;57728;50.448;18.824;2023-02-18T09:02:20;97737.72;;;8.69;42.65
67397;BME280;57728;50.448;18.824;2023-02-18T09:04:35;97674.06;;;8.27;42.90
67397;BME280;57728;50.448;18.824;2023-02-18T09:06:37;97699.91;;;8.55;42.91
67397;BME280;57728;50.448;18.824;2023-02-18T09:08:40;97782.22;;;9.05;43.31
67397;BME280;57728;50.448;18.824;2023-02-18T09:10:43;97687.66;;;8.46;43.23
67397;BME280;57728;50.448;18.824;2023-02-18T09:12:44;97770.44;;;9.11;43.48
67397;BME280;57728;50.448;18.824;2023-02-18T09:14:47;97642.72;;;8.32;43.54
67397;BME280;57728;50.448;18.824;2023-02-18T09:16:49;97679.75;;;8.45;43.74
67397;BME280;57728;50.448;18.824;2023-02-18T09:18:51;97663.47;;;8.45;43.78
67397;BME280;57728;50.448;18.824;2023-02-18T09:20:56;97614.25;;;8.22;43.77
67397;BME280;57728;50.448;18.824;2023-02-18T09:22:59;97646.88;;;8.34;44.03
67397;BME280;57728;50.448;18.824;2023-02-18T09:25:03;97727.00;;;8.92;44.03
67397;BME280;57728;50.448;18.824;2023-02-18T09:27:06;97790.88;;;9.32;44.08
67397;BME280;57728;50.448;18.824;2023-02-18T09:29:10;97631.13;;;8.43;44.02
67397;BME280;57728;50.448;18.824;2023-02-18T09:31:15;97775.84;;;9.29;44.00
67397;BME280;57728;50.448;18.824;2023-02-18T09:33:21;97717.19;;;9.10;44.29
67397;BME280;57728;50.448;18.824;2023-02-18T09:35:23;97621.09;;;8.43;44.62
67397;BME280;57728;50.448;18.824;2023-02-18T09:37:29;97722.25;;;9.06;44.30
67397;BME280;57728;50.448;18.824;2023-02-18T09:39:46;97765.25;;;9.40;44.20
67397;BME280;57728;50.448;18.824;2023-02-18T09:42:15;97604.47;;;8.40;44.26
67397;BME280;57728;50.448;18.824;2023-02-18T09:47:29;97492.72;;;7.64;44.49
67397;BME280;57728;50.448;18.824;2023-02-18T09:49:54;97577.88;;;8.12;43.83
67397;BME280;57728;50.448;18.824;2023-02-18T09:52:27;97756.59;;;9.31;44.47
67397;BME280;57728;50.448;18.824;2023-02-18T09:54:30;97723.06;;;9.07;44.46
67397;BME280;57728;50.448;18.824;2023-02-18T09:56:38;97766.72;;;9.24;44.05
67397;BME280;57728;50.448;18.824;2023-02-18T09:58:58;97603.03;;;8.19;44.29
67397;BME280;57728;50.448;18.824;2023-02-18T10:01:47;97454.63;;;7.21;44.69
67397;BME280;57728;50.448;18.824;2023-02-18T10:03:57;97720.84;;;8.85;45.20
67397;BME280;57728;50.448;18.824;2023-02-18T10:06:11;97599.47;;;8.18;45.87
67397;BME280;57728;50.448;18.824;2023-02-18T10:08:46;97621.03;;;8.13;46.54
67397;BME280;57728;50.448;18.824;2023-02-18T10:10:55;97612.88;;;7.95;46.78
67397;BME280;57728;50.448;18.824;2023-02-18T10:13:21;97779.41;;;8.93;47.95
67397;BME280;57728;50.448;18.824;2023-02-18T10:15:29;97774.69;;;8.88;48.30
67397;BME280;57728;50.448;18.824;2023-02-18T10:17:36;97598.69;;;7.74;48.52
67397;BME280;57728;50.448;18.824;2023-02-18T10:19:39;97652.66;;;8.19;49.09
67397;BME280;57728;50.448;18.824;2023-02-18T10:21:42;97640.97;;;8.00;50.42
67397;BME280;57728;50.448;18.824;2023-02-18T10:26:09;97564.53;;;7.48;51.06
67397;BME280;57728;50.448;18.824;2023-02-18T10:28:21;97756.88;;;8.74;51.56
67397;BME280;57728;50.448;18.824;2023-02-18T10:30:41;97718.50;;;8.52;52.38
67397;BME280;57728;50.448;18.824;2023-02-18T10:32:47;97710.19;;;8.47;52.23
67397;BME280;57728;50.448;18.824;2023-02-18T10:42:36;97717.06;;;8.49;52.38
67397;BME280;57728;50.448;18.824;2023-02-18T10:51:55;97580.69;;;7.61;52.84
67397;BME280;57728;50.448;18.824;2023-02-18T10:54:03;97627.31;;;7.88;52.99
67397;BME280;57728;50.448;18.824;2023-02-18T10:56:05;97565.94;;;7.57;52.80
67397;BME280;57728;50.448;18.824;2023-02-18T10:58:41;97734.72;;;8.58;52.90
67397;BME280;57728;50.448;18.824;2023-02-18T11:00:48;97613.63;;;7.83;53.14
67397;BME280;57728;50.448;18.824;2023-02-18T11:05:25;97728.06;;;8.54;53.31
67397;BME280;57728;50.448;18.824;2023-02-18T11:07:33;97644.06;;;8.04;53.25
67397;BME280;57728;50.448;18.824;2023-02-18T11:09:51;97589.81;;;7.67;53.18
67397;BME280;57728;50.448;18.824;2023-02-18T11:12:18;97664.09;;;8.21;53.29
67397;BME280;57728;50.448;18.824;2023-02-18T11:14:36;97697.22;;;8.30;53.41
67397;BME280;57728;50.448;18.824;2023-02-18T11:16:42;97583.34;;;7.68;53.77
67397;BME280;57728;50.448;18.824;2023-02-18T11:18:46;97701.50;;;8.38;54.10
67397;BME280;57728;50.448;18.824;2023-02-18T11:21:00;97557.72;;;7.45;54.24
67397;BME280;57728;50.448;18.824;2023-02-18T11:25:26;97690.94;;;8.30;54.81
67397;BME280;57728;50.448;18.824;2023-02-18T11:27:59;97604.16;;;7.67;55.04
67397;BME280;57728;50.448;18.824;2023-02-18T11:30:06;97657.16;;;8.07;55.14
67397;BME280;57728;50.448;18.824;2023-02-18T11:32:26;97576.53;;;7.58;54.88
67397;BME280;57728;50.448;18.824;2023-02-18T11:34:32;97580.63;;;7.68;55.34
67397;BME280;57728;50.448;18.824;2023-02-18T11:36:37;97633.97;;;8.11;55.20
67397;BME280;57728;50.448;18.824;2023-02-18T11:38:54;97626.75;;;8.05;55.41
67397;BME280;57728;50.448;18.824;2023-02-18T11:41:06;97664.06;;;8.47;55.86
67397;BME280;57728;50.448;18.824;2023-02-18T11:43:18;97475.22;;;7.22;56.33
67397;BME280;57728;50.448;18.824;2023-02-18T11:45:33;97606.72;;;8.06;56.81
67397;BME280;57728;50.448;18.824;2023-02-18T11:47:36;97540.88;;;7.62;58.19
67397;BME280;57728;50.448;18.824;2023-02-18T11:49:43;97542.66;;;7.49;58.33
67397;BME280;57728;50.448;18.824;2023-02-18T11:52:17;97525.94;;;7.34;58.92
67397;BME280;57728;50.448;18.824;2023-02-18T11:54:30;97611.22;;;7.94;59.01
67397;BME280;57728;50.448;18.824;2023-02-18T11:56:35;97585.09;;;7.81;59.24
67397;BME280;57728;50.448;18.824;2023-02-18T11:58:44;97540.84;;;7.43;59.89
67397;BME280;57728;50.448;18.824;2023-02-18T12:04:22;97541.53;;;7.13;60.94
67397;BME280;57728;50.448;18.824;2023-02-18T12:06:44;97626.47;;;7.69;61.53
67397;BME280;57728;50.448;18.824;2023-02-18T12:11:51;97592.84;;;7.27;62.84
67397;BME280;57728;50.448;18.824;2023-02-18T12:14:18;97622.09;;;7.43;63.67
67397;BME280;57728;50.448;18.824;2023-02-18T12:18:54;97623.84;;;7.31;65.01
67397;BME280;57728;50.448;18.824;2023-02-18T12:24:19;97603.53;;;7.21;65.99
67397;BME280;57728;50.448;18.824;2023-02-18T12:26:35;97609.97;;;7.20;66.15
67397;BME280;57728;50.448;18.824;2023-02-18T12:36:53;97570.75;;;7.04;67.33
67397;BME280;57728;50.448;18.824;2023-02-18T12:51:20;97534.63;;;7.17;68.77
67397;BME280;57728;50.448;18.824;2023-02-18T12:53:39;97530.56;;;7.27;69.01